createdAt,value
2018-07-27T00:00:19.115Z,6.20
2018-07-27T00:02:48.077Z,6.03
2018-07-27T00:05:17.004Z,5.97
2018-07-27T00:07:45.969Z,6.27
2018-07-27T00:10:16.354Z,5.63
2018-07-27T00:12:45.261Z,5.80
2018-07-27T00:15:14.573Z,8.13
2018-07-27T00:17:43.500Z,5.57
2018-07-27T00:20:12.400Z,6.10
2018-07-27T00:22:41.253Z,6.13
2018-07-27T00:25:10.176Z,5.63
2018-07-27T00:27:39.074Z,6.17
2018-07-27T00:30:08.107Z,5.70
2018-07-27T00:32:36.980Z,5.97
2018-07-27T00:35:05.897Z,5.80
2018-07-27T00:37:34.764Z,6.30
2018-07-27T00:40:03.680Z,5.63
2018-07-27T00:42:32.569Z,5.73
2018-07-27T00:45:01.461Z,5.83
2018-07-27T00:47:30.396Z,5.27
2018-07-27T00:49:59.287Z,6.60
2018-07-27T00:52:28.202Z,6.50
2018-07-27T00:54:57.092Z,6.17
2018-07-27T00:57:25.964Z,6.27
2018-07-27T00:59:54.876Z,6.00
2018-07-27T01:02:23.803Z,6.30
2018-07-27T01:04:52.719Z,5.33
2018-07-27T01:07:21.545Z,5.77
2018-07-27T01:09:50.413Z,6.30
2018-07-27T01:12:19.260Z,6.03
2018-07-27T01:14:48.173Z,5.83
2018-07-27T01:17:17.008Z,5.53
2018-07-27T01:19:45.877Z,5.90
2018-07-27T01:22:14.724Z,5.80
2018-07-27T01:24:43.576Z,5.77
2018-07-27T01:27:12.435Z,5.93
2018-07-27T01:29:41.300Z,5.93
2018-07-27T01:32:10.182Z,6.53
2018-07-27T01:34:39.016Z,5.87
2018-07-27T01:37:07.985Z,6.23
2018-07-27T01:39:36.634Z,5.90
2018-07-27T01:42:05.367Z,6.20
2018-07-27T01:44:34.228Z,5.43
2018-07-27T01:47:03.076Z,6.10
2018-07-27T01:49:31.916Z,7.10
2018-07-27T01:52:00.761Z,5.83
2018-07-27T01:54:29.621Z,5.80
2018-07-27T01:56:58.501Z,5.93
2018-07-27T01:59:27.400Z,5.57
2018-07-27T02:01:56.302Z,6.27
2018-07-27T02:04:25.217Z,6.20
2018-07-27T02:06:54.141Z,5.63
2018-07-27T02:09:23.096Z,6.00
2018-07-27T02:11:52.000Z,5.93
2018-07-27T02:14:20.826Z,6.47
2018-07-27T02:16:49.658Z,6.13
2018-07-27T02:19:18.518Z,6.17
2018-07-27T02:21:47.374Z,6.23
2018-07-27T02:24:16.227Z,5.90
2018-07-27T02:26:44.883Z,6.00
2018-07-27T02:29:13.652Z,7.07
2018-07-27T02:31:42.545Z,6.87
2018-07-27T02:34:11.409Z,6.70
2018-07-27T02:36:40.262Z,6.77
2018-07-27T02:39:10.427Z,6.43
2018-07-27T02:41:39.293Z,5.80
2018-07-27T02:44:08.713Z,7.00
2018-07-27T02:46:37.567Z,5.97
2018-07-27T02:49:06.723Z,6.30
2018-07-27T02:51:36.129Z,6.30
2018-07-27T02:54:04.997Z,6.40
2018-07-27T02:56:33.884Z,6.20
2018-07-27T02:59:02.743Z,6.33
2018-07-27T03:01:31.633Z,6.30
2018-07-27T03:04:00.490Z,7.37
2018-07-27T03:06:29.393Z,6.70
2018-07-27T03:08:58.302Z,6.40
2018-07-27T03:11:27.217Z,6.70
2018-07-27T03:13:56.092Z,6.00
2018-07-27T03:16:25.003Z,6.17
2018-07-27T03:18:53.877Z,6.60
2018-07-27T03:21:22.768Z,6.90
2018-07-27T03:23:51.660Z,7.17
2018-07-27T03:26:20.545Z,6.37
2018-07-27T03:28:49.429Z,6.80
2018-07-27T03:31:18.352Z,6.43
2018-07-27T03:33:47.211Z,6.13
2018-07-27T03:36:16.081Z,6.70
2018-07-27T03:38:44.953Z,7.43
2018-07-27T03:41:13.812Z,8.00
2018-07-27T03:43:42.707Z,7.63
2018-07-27T03:46:11.568Z,6.97
2018-07-27T03:48:40.442Z,7.40
2018-07-27T03:51:09.303Z,6.30
2018-07-27T03:53:38.179Z,6.90
2018-07-27T03:56:07.032Z,6.57
2018-07-27T03:58:35.992Z,6.73
2018-07-27T04:01:04.861Z,7.03
2018-07-27T04:03:33.721Z,7.17
2018-07-27T04:06:02.618Z,6.73
2018-07-27T04:08:31.544Z,6.60
2018-07-27T04:11:00.405Z,6.80
2018-07-27T04:13:29.310Z,7.00
2018-07-27T04:15:58.221Z,6.73
2018-07-27T04:18:27.126Z,6.67
2018-07-27T04:20:56.155Z,6.33
2018-07-27T04:23:25.040Z,6.57
2018-07-27T04:25:53.962Z,6.93
2018-07-27T04:28:22.853Z,7.03
2018-07-27T04:30:51.741Z,6.97
2018-07-27T04:33:20.902Z,6.67
2018-07-27T04:35:49.750Z,6.23
2018-07-27T04:38:18.576Z,9.23
2018-07-27T04:40:47.445Z,6.70
2018-07-27T04:43:16.292Z,7.10
2018-07-27T04:45:45.156Z,6.83
2018-07-27T04:48:14.004Z,6.90
2018-07-27T04:50:42.927Z,6.57
2018-07-27T04:53:11.982Z,8.40
2018-07-27T04:55:40.836Z,7.97
2018-07-27T04:58:09.712Z,6.87
2018-07-27T05:00:42.810Z,7.10
2018-07-27T05:03:18.144Z,6.40
2018-07-27T05:05:47.056Z,6.80
2018-07-27T05:08:16.641Z,7.00
2018-07-27T05:10:48.296Z,6.30
2018-07-27T05:13:17.905Z,6.60
2018-07-27T05:15:47.793Z,6.67
2018-07-27T05:18:17.432Z,6.53
2018-07-27T05:20:46.514Z,6.67
2018-07-27T05:23:15.436Z,6.37
2018-07-27T05:25:44.336Z,5.37
2018-07-27T05:28:13.237Z,5.77
2018-07-27T05:30:42.118Z,5.60
2018-07-27T05:33:10.806Z,5.63
2018-07-27T05:35:39.776Z,5.80
2018-07-27T05:38:08.651Z,5.43
2018-07-27T05:40:37.564Z,5.70
2018-07-27T05:43:06.437Z,5.63
2018-07-27T05:45:35.431Z,6.00
2018-07-27T05:48:04.271Z,4.97
2018-07-27T05:50:33.220Z,5.37
2018-07-27T05:53:02.469Z,5.17
2018-07-27T05:55:31.348Z,5.20
2018-07-27T05:58:00.508Z,4.90
2018-07-27T06:00:29.476Z,5.40
2018-07-27T06:02:58.411Z,5.20
2018-07-27T06:05:27.328Z,4.73
2018-07-27T06:07:56.301Z,5.27
2018-07-27T06:10:25.408Z,5.23
2018-07-27T06:12:54.473Z,5.03
2018-07-27T06:15:23.404Z,4.30
2018-07-27T06:17:52.333Z,5.13
2018-07-27T06:20:21.190Z,4.50
2018-07-27T06:22:50.049Z,5.13
2018-07-27T06:25:19.016Z,5.30
2018-07-27T06:27:47.864Z,4.80
2018-07-27T06:30:16.735Z,5.17
2018-07-27T06:32:45.575Z,4.67
2018-07-27T06:35:14.513Z,5.00
2018-07-27T06:37:43.342Z,4.77
2018-07-27T06:40:12.256Z,4.77
2018-07-27T06:42:41.140Z,5.10
2018-07-27T06:45:10.087Z,4.63
2018-07-27T06:47:38.985Z,4.83
2018-07-27T06:50:07.800Z,4.60
2018-07-27T06:52:36.740Z,4.37
2018-07-27T06:55:05.600Z,4.83
2018-07-27T06:57:34.471Z,4.67
2018-07-27T07:00:03.399Z,4.77
2018-07-27T07:02:32.308Z,5.00
2018-07-27T07:05:01.261Z,4.50
2018-07-27T07:07:30.137Z,4.90
2018-07-27T07:09:59.146Z,4.90
2018-07-27T07:12:28.096Z,4.53
2018-07-27T07:14:57.360Z,4.43
2018-07-27T07:17:26.373Z,4.80
2018-07-27T07:19:55.290Z,4.37
2018-07-27T07:22:24.178Z,4.27
2018-07-27T07:24:53.102Z,4.23
2018-07-27T07:27:22.015Z,4.80
2018-07-27T07:29:50.985Z,3.80
2018-07-27T07:32:19.822Z,4.53
2018-07-27T07:34:48.693Z,4.47
2018-07-27T07:37:17.725Z,4.47
2018-07-27T07:39:46.619Z,4.40
2018-07-27T07:42:15.472Z,5.07
2018-07-27T07:44:44.348Z,4.57
2018-07-27T07:47:13.204Z,4.53
2018-07-27T07:49:42.114Z,4.33
2018-07-27T07:52:10.957Z,4.23
2018-07-27T07:54:39.820Z,4.00
2018-07-27T07:57:08.668Z,4.10
2018-07-27T07:59:37.589Z,4.30
2018-07-27T08:02:06.986Z,5.40
2018-07-27T08:04:35.838Z,3.67
2018-07-27T08:07:04.869Z,4.60
2018-07-27T08:09:33.725Z,4.43
2018-07-27T08:12:02.594Z,4.53
2018-07-27T08:14:31.482Z,3.73
2018-07-27T08:17:00.359Z,4.17
2018-07-27T08:19:29.248Z,3.93
2018-07-27T08:21:58.224Z,3.70
2018-07-27T08:24:27.119Z,3.63
2018-07-27T08:27:03.947Z,3.67
2018-07-27T08:29:34.105Z,4.07
2018-07-27T08:32:03.416Z,5.97
2018-07-27T08:34:32.368Z,3.70
2018-07-27T08:37:01.353Z,4.03
2018-07-27T08:39:31.565Z,4.20
2018-07-27T08:42:00.494Z,3.37
2018-07-27T08:44:30.733Z,4.10
2018-07-27T08:46:59.594Z,3.60
2018-07-27T08:49:28.564Z,4.20
2018-07-27T08:51:57.485Z,3.60
2018-07-27T08:54:26.497Z,4.00
2018-07-27T08:56:55.474Z,4.27
2018-07-27T08:59:24.366Z,3.97
2018-07-27T09:01:53.304Z,3.83
2018-07-27T09:04:22.227Z,3.70
2018-07-27T09:06:51.089Z,3.93
2018-07-27T09:09:20.136Z,3.70
2018-07-27T09:11:49.004Z,4.30
2018-07-27T09:14:17.864Z,3.77
2018-07-27T09:16:46.748Z,3.40
2018-07-27T09:19:15.661Z,3.53
2018-07-27T09:21:44.678Z,3.67
2018-07-27T09:24:13.625Z,3.40
2018-07-27T09:26:42.456Z,3.60
2018-07-27T09:29:11.633Z,3.17
2018-07-27T09:31:40.507Z,4.10
2018-07-27T09:34:09.435Z,3.67
2018-07-27T09:36:38.354Z,3.80
2018-07-27T09:39:08.649Z,3.77
2018-07-27T09:41:37.588Z,3.60
2018-07-27T09:44:06.769Z,3.40
2018-07-27T09:46:35.805Z,3.67
2018-07-27T09:49:04.682Z,3.50
2018-07-27T09:51:33.559Z,3.47
2018-07-27T09:54:02.448Z,5.30
2018-07-27T09:56:31.416Z,4.10
2018-07-27T09:59:01.220Z,3.70
2018-07-27T10:01:31.216Z,4.00
2018-07-27T10:04:01.122Z,3.53
2018-07-27T10:06:30.636Z,3.40
2018-07-27T10:09:00.394Z,3.60
2018-07-27T10:11:29.431Z,3.93
2018-07-27T10:13:58.532Z,3.20
2018-07-27T10:16:27.584Z,3.80
2018-07-27T10:18:56.572Z,3.97
2018-07-27T10:21:25.531Z,3.87
2018-07-27T10:23:54.537Z,3.70
2018-07-27T10:26:23.455Z,3.30
2018-07-27T10:28:52.760Z,3.83
2018-07-27T10:31:21.881Z,3.30
2018-07-27T10:33:50.892Z,3.43
2018-07-27T10:36:19.768Z,3.33
2018-07-27T10:38:48.656Z,3.60
2018-07-27T10:41:17.569Z,3.20
2018-07-27T10:43:46.512Z,3.20
2018-07-27T10:46:15.536Z,3.93
2018-07-27T10:48:44.618Z,3.20
2018-07-27T10:51:13.479Z,3.40
2018-07-27T10:53:42.374Z,3.10
2018-07-27T10:56:11.296Z,3.47
2018-07-27T10:58:40.183Z,3.53
2018-07-27T11:01:09.166Z,3.50
2018-07-27T11:03:38.038Z,3.40
2018-07-27T11:06:06.772Z,3.40
2018-07-27T11:08:35.549Z,3.70
2018-07-27T11:11:04.485Z,3.30
2018-07-27T11:13:33.537Z,3.27
2018-07-27T11:16:02.429Z,3.57
2018-07-27T11:18:31.318Z,3.40
2018-07-27T11:21:00.549Z,3.13
2018-07-27T11:23:29.959Z,3.50
2018-07-27T11:25:59.929Z,3.30
2018-07-27T11:28:28.926Z,3.37
2018-07-27T11:30:58.588Z,2.97
2018-07-27T11:33:28.398Z,3.13
2018-07-27T11:35:57.506Z,3.30
2018-07-27T11:38:26.458Z,3.77
2018-07-27T11:40:55.616Z,3.93
2018-07-27T11:43:24.739Z,3.40
2018-07-27T11:45:53.727Z,3.63
2018-07-27T11:48:22.753Z,3.63
2018-07-27T11:50:51.629Z,3.57
2018-07-27T11:53:20.557Z,3.27
2018-07-27T11:55:49.441Z,3.83
2018-07-27T11:58:18.360Z,4.00
2018-07-27T12:00:47.271Z,3.77
2018-07-27T12:03:16.193Z,3.47
2018-07-27T12:05:45.051Z,3.60
2018-07-27T12:08:14.022Z,3.30
2018-07-27T12:10:42.724Z,4.03
2018-07-27T12:13:11.482Z,7.23
2018-07-27T12:15:40.508Z,4.40
2018-07-27T12:18:09.426Z,3.30
2018-07-27T12:20:38.391Z,3.13
2018-07-27T12:23:07.203Z,3.77
2018-07-27T12:25:36.117Z,3.47
2018-07-27T12:28:05.014Z,3.30
2018-07-27T12:30:33.881Z,3.23
2018-07-27T12:33:02.834Z,4.07
2018-07-27T12:35:31.706Z,3.90
2018-07-27T12:38:00.658Z,3.93
2018-07-27T12:40:29.544Z,4.13
2018-07-27T12:42:58.663Z,5.47
2018-07-27T12:45:27.550Z,4.33
2018-07-27T12:47:56.965Z,4.80
2018-07-27T12:50:25.975Z,4.47
2018-07-27T12:52:54.869Z,4.63
2018-07-27T12:55:23.865Z,4.67
2018-07-27T12:57:52.810Z,6.30
2018-07-27T13:00:21.779Z,6.90
2018-07-27T13:02:50.701Z,6.83
2018-07-27T13:05:19.999Z,4.87
2018-07-27T13:07:48.949Z,4.43
2018-07-27T13:10:17.921Z,4.67
2018-07-27T13:12:46.851Z,4.27
2018-07-27T13:15:15.517Z,4.50
2018-07-27T13:17:44.283Z,4.57
2018-07-27T13:20:13.431Z,4.97
2018-07-27T13:22:42.376Z,5.37
2018-07-27T13:25:11.257Z,4.40
2018-07-27T13:27:40.128Z,5.13
2018-07-27T13:30:09.627Z,5.20
2018-07-27T13:32:38.588Z,5.10
2018-07-27T13:37:37.049Z,4.37
2018-07-27T13:40:06.069Z,5.07
2018-07-27T13:42:36.180Z,5.17
2018-07-27T13:45:05.302Z,5.43
2018-07-27T13:47:34.155Z,5.27
2018-07-27T13:50:03.125Z,5.27
2018-07-27T13:52:31.942Z,5.30
2018-07-27T13:55:00.862Z,5.13
2018-07-27T13:57:29.936Z,5.60
2018-07-27T13:59:58.939Z,5.80
2018-07-27T14:02:27.864Z,4.87
2018-07-27T14:04:56.945Z,5.00
2018-07-27T14:07:25.971Z,3.53
2018-07-27T14:09:55.050Z,5.33
2018-07-27T14:12:24.027Z,4.80
2018-07-27T14:14:53.136Z,4.67
2018-07-27T14:17:22.013Z,5.63
2018-07-27T14:19:50.918Z,5.60
2018-07-27T14:22:19.864Z,4.20
2018-07-27T14:24:48.722Z,4.07
2018-07-27T14:27:20.716Z,4.63
2018-07-27T14:29:49.606Z,5.67
2018-07-27T14:32:18.575Z,5.17
2018-07-27T14:34:47.452Z,3.70
2018-07-27T14:37:16.323Z,3.80
2018-07-27T14:39:45.188Z,3.67
2018-07-27T14:42:14.078Z,4.40
2018-07-27T14:44:42.947Z,3.63
2018-07-27T14:47:11.836Z,4.00
2018-07-27T14:49:40.733Z,3.97
2018-07-27T14:52:09.665Z,3.47
2018-07-27T14:54:38.620Z,3.70
2018-07-27T14:57:07.526Z,3.80
2018-07-27T14:59:36.498Z,4.17
2018-07-27T15:02:05.999Z,5.67
2018-07-27T15:04:34.655Z,4.73
2018-07-27T15:07:03.409Z,3.33
2018-07-27T15:09:32.592Z,3.70
2018-07-27T15:12:01.450Z,4.20
2018-07-27T15:14:31.249Z,5.97
2018-07-27T15:17:01.193Z,4.20
2018-07-27T15:19:30.045Z,4.83
2018-07-27T15:21:58.894Z,4.10
2018-07-27T15:24:27.874Z,5.23
2018-07-27T15:26:56.752Z,5.97
2018-07-27T15:29:26.197Z,4.13
2018-07-27T15:31:55.512Z,4.90
2018-07-27T15:34:24.453Z,4.10
2018-07-27T15:36:54.033Z,3.53
2018-07-27T15:39:23.567Z,3.70
2018-07-27T15:41:52.720Z,3.40
2018-07-27T15:44:22.093Z,4.87
2018-07-27T15:46:51.377Z,3.57
2018-07-27T15:49:20.524Z,4.00
2018-07-27T15:51:49.518Z,3.93
2018-07-27T15:54:18.455Z,5.07
2018-07-27T15:56:47.331Z,3.93
2018-07-27T15:59:16.214Z,4.10
2018-07-27T16:01:45.219Z,4.10
2018-07-27T16:04:14.219Z,4.20
2018-07-27T16:06:43.116Z,3.87
2018-07-27T16:09:12.053Z,5.50
2018-07-27T16:11:41.014Z,4.00
2018-07-27T16:14:09.944Z,4.23
2018-07-27T16:16:38.926Z,3.80
2018-07-27T16:19:07.836Z,3.97
2018-07-27T16:21:36.763Z,4.37
2018-07-27T16:24:05.641Z,4.13
2018-07-27T16:26:34.531Z,3.60
2018-07-27T16:29:03.512Z,4.27
2018-07-27T16:31:32.373Z,3.83
2018-07-27T16:34:01.350Z,3.73
2018-07-27T16:36:30.261Z,4.80
2018-07-27T16:38:59.165Z,3.97
2018-07-27T16:41:28.193Z,5.33
2018-07-27T16:43:57.188Z,4.20
2018-07-27T16:46:26.153Z,4.70
2018-07-27T16:48:55.361Z,4.20
2018-07-27T16:51:24.375Z,4.17
2018-07-27T16:53:53.440Z,4.13
2018-07-27T16:56:22.782Z,3.83
2018-07-27T16:58:51.976Z,4.50
2018-07-27T17:01:21.169Z,4.17
2018-07-27T17:03:50.180Z,3.83
2018-07-27T17:06:19.412Z,4.13
2018-07-27T17:08:48.403Z,3.90
2018-07-27T17:11:17.856Z,4.77
2018-07-27T17:13:46.775Z,5.10
2018-07-27T17:16:15.689Z,4.87
2018-07-27T17:18:44.579Z,4.43
2018-07-27T17:21:13.432Z,4.20
2018-07-27T17:23:42.338Z,4.00
2018-07-27T17:26:11.298Z,4.13
2018-07-27T17:28:40.398Z,4.47
2018-07-27T17:31:09.456Z,4.83
2018-07-27T17:33:38.496Z,4.33
2018-07-27T17:36:07.492Z,3.97
2018-07-27T17:38:36.457Z,4.40
2018-07-27T17:41:05.373Z,4.60
2018-07-27T17:43:34.324Z,3.97
2018-07-27T17:46:03.197Z,4.33
2018-07-27T17:48:32.157Z,4.10
2018-07-27T17:51:01.185Z,5.07
2018-07-27T17:53:30.159Z,4.37
2018-07-27T17:55:59.090Z,4.20
2018-07-27T17:58:28.010Z,4.60
2018-07-27T18:00:56.868Z,4.13
2018-07-27T18:03:25.739Z,4.27
2018-07-27T18:05:54.648Z,4.43
2018-07-27T18:08:23.528Z,6.10
2018-07-27T18:10:52.387Z,4.47
2018-07-27T18:13:21.252Z,5.33
2018-07-27T18:15:50.126Z,4.70
2018-07-27T18:18:19.044Z,4.67
2018-07-27T18:20:47.903Z,4.47
2018-07-27T18:23:16.824Z,4.47
2018-07-27T18:25:45.692Z,4.00
2018-07-27T18:28:14.607Z,4.40
2018-07-27T18:30:43.486Z,4.53
2018-07-27T18:33:12.345Z,4.57
2018-07-27T18:35:41.241Z,4.40
2018-07-27T18:38:10.152Z,5.07
2018-07-27T18:40:39.058Z,4.70
2018-07-27T18:43:08.120Z,5.30
2018-07-27T18:45:37.032Z,5.10
2018-07-27T18:48:06.051Z,4.93
2018-07-27T18:50:34.981Z,3.87
2018-07-27T18:53:04.355Z,4.20
2018-07-27T18:55:33.338Z,5.00
2018-07-27T18:58:02.573Z,5.10
2018-07-27T19:00:31.529Z,4.70
2018-07-27T19:03:01.036Z,4.57
2018-07-27T19:05:29.960Z,4.40
2018-07-27T19:07:58.880Z,5.50
2018-07-27T19:10:27.768Z,4.30
2018-07-27T19:12:56.664Z,4.27
2018-07-27T19:15:25.544Z,5.20
2018-07-27T19:17:54.512Z,4.60
2018-07-27T19:20:23.355Z,5.30
2018-07-27T19:22:52.329Z,4.60
2018-07-27T19:25:21.005Z,4.13
2018-07-27T19:27:49.904Z,4.73
2018-07-27T19:30:18.812Z,5.13
2018-07-27T19:32:47.725Z,5.47
2018-07-27T19:35:16.586Z,5.63
2018-07-27T19:37:45.462Z,5.60
2018-07-27T19:40:14.327Z,4.30
2018-07-27T19:42:43.237Z,4.03
2018-07-27T19:45:12.128Z,4.30
2018-07-27T19:47:41.008Z,5.17
2018-07-27T19:50:09.897Z,5.87
2018-07-27T19:52:38.905Z,5.80
2018-07-27T19:55:07.856Z,4.93
2018-07-27T19:57:36.850Z,5.80
2018-07-27T20:00:06.942Z,5.43
2018-07-27T20:02:35.990Z,6.27
2018-07-27T20:05:05.314Z,6.13
2018-07-27T20:07:34.246Z,5.10
2018-07-27T20:10:03.143Z,5.70
2018-07-27T20:12:32.082Z,5.13
2018-07-27T20:15:00.943Z,6.00
2018-07-27T20:17:29.847Z,4.87
2018-07-27T20:19:58.804Z,5.40
2018-07-27T20:22:27.672Z,5.30
2018-07-27T20:24:56.806Z,5.17
2018-07-27T20:27:25.672Z,4.77
2018-07-27T20:29:54.894Z,4.63
2018-07-27T20:32:23.764Z,5.10
2018-07-27T20:34:52.634Z,4.93
2018-07-27T20:37:21.563Z,4.50
2018-07-27T20:39:50.414Z,4.47
2018-07-27T20:42:19.285Z,4.20
2018-07-27T20:44:48.221Z,4.43
2018-07-27T20:47:17.087Z,5.27
2018-07-27T20:49:46.004Z,5.50
2018-07-27T20:52:14.869Z,4.70
2018-07-27T20:54:43.736Z,5.13
2018-07-27T20:57:12.757Z,4.50
2018-07-27T20:59:41.661Z,4.87
2018-07-27T21:02:10.644Z,5.00
2018-07-27T21:04:39.609Z,4.57
2018-07-27T21:07:08.523Z,4.80
2018-07-27T21:09:37.517Z,5.57
2018-07-27T21:12:06.465Z,5.63
2018-07-27T21:14:35.408Z,5.47
2018-07-27T21:17:04.371Z,4.87
2018-07-27T21:19:33.393Z,5.50
2018-07-27T21:22:02.395Z,4.87
2018-07-27T21:24:31.227Z,5.53
2018-07-27T21:27:00.120Z,5.80
2018-07-27T21:29:29.025Z,4.97
2018-07-27T21:31:57.874Z,5.03
2018-07-27T21:34:26.746Z,5.03
2018-07-27T21:36:55.625Z,4.90
2018-07-27T21:39:24.532Z,5.73
2018-07-27T21:41:53.472Z,4.57
2018-07-27T21:44:22.305Z,5.67
2018-07-27T21:46:51.197Z,4.80
2018-07-27T21:49:20.089Z,4.97
2018-07-27T21:51:49.126Z,5.23
2018-07-27T21:54:17.932Z,4.73
2018-07-27T21:56:46.807Z,5.17
2018-07-27T21:59:15.665Z,4.70
2018-07-27T22:01:44.533Z,5.07
2018-07-27T22:04:13.409Z,5.27
2018-07-27T22:06:42.270Z,4.93
2018-07-27T22:09:11.339Z,4.27
2018-07-27T22:11:40.337Z,5.23
2018-07-27T22:14:09.226Z,5.53
2018-07-27T22:16:38.150Z,5.10
2018-07-27T22:19:07.053Z,5.17
2018-07-27T22:21:35.999Z,4.37
2018-07-27T22:24:04.941Z,4.57
2018-07-27T22:26:33.856Z,5.60
2018-07-27T22:29:02.624Z,4.70
2018-07-27T22:31:31.433Z,5.00
2018-07-27T22:34:00.397Z,5.43
2018-07-27T22:36:30.400Z,5.23
2018-07-27T22:38:59.281Z,5.43
2018-07-27T22:41:28.159Z,4.80
2018-07-27T22:43:57.110Z,4.67
2018-07-27T22:46:25.972Z,5.03
2018-07-27T22:48:55.570Z,4.93
2018-07-27T22:51:24.447Z,5.43
2018-07-27T22:53:53.327Z,5.13
2018-07-27T22:56:22.186Z,5.20
2018-07-27T22:58:51.364Z,5.10
2018-07-27T23:01:20.289Z,4.73
2018-07-27T23:03:49.202Z,5.47
2018-07-27T23:06:18.003Z,5.10
2018-07-27T23:08:46.874Z,5.43
2018-07-27T23:11:15.730Z,4.70
2018-07-27T23:13:44.596Z,5.07
2018-07-27T23:16:13.496Z,4.37
2018-07-27T23:18:42.408Z,5.40
2018-07-27T23:21:11.305Z,5.23
2018-07-27T23:23:40.185Z,5.10
2018-07-27T23:26:09.190Z,4.50
2018-07-27T23:28:38.137Z,5.10
2018-07-27T23:31:07.035Z,6.23
2018-07-27T23:33:35.915Z,5.10
2018-07-27T23:36:04.857Z,4.57
2018-07-27T23:38:33.794Z,5.07
2018-07-27T23:41:04.901Z,4.93
2018-07-27T23:43:33.838Z,5.03
2018-07-27T23:46:02.778Z,5.20
2018-07-27T23:48:32.022Z,5.43
2018-07-27T23:51:00.909Z,4.87
2018-07-27T23:53:29.786Z,5.13
2018-07-27T23:55:58.658Z,4.80
2018-07-27T23:58:27.497Z,5.53
